Hovedside
METAR-TAF:

METAR-TAF

Lufthavner :

Guararapes internasjonale lufthavn

Recife, Pernambuco, Brasil

breddegrad: 08-08S, lengdegrad: 034-55W, høyde over havet: 19 m

Gjeldene værobservasjon

Denne rapporten ble laget for 42 minutter siden, klokken 10:00 UTC
Vind 12 kt fra Øst-sørøst
Temperatur 23°C
Luftfuktighet 89%
Trykk 1016 hPa
Sikt 10 km eller mer
Spredte skyer i en høyde av 1000 ft
Spredte skyer i en høyde av 2300 ft
Brutte skyer i en høyde av 5000 ft

METAR: SBRF 201000Z 12012KT 9999 SCT010 SCT023 BKN050 23/21 Q1016

Tid: 07:42 (10:42 UTC)

Varsel

Denne rapporten ble laget for 9 timer og 42 minutter siden, klokken 01:00 UTC
Varsel gyldig fra 20. klokken 06 UTC til 21. klokken 06 UTC
Vind 12 kt fra Sør-sørøst
Sikt: 8000 m
Spredte skyer i en høyde av 2000 ft

TAF: SBRF 200100Z 2006/2106 15012KT 8000 SCT020 TN24/2008Z TX28/2015Z RMK PEA

Værobservasjoner og værvarsel for over 4000 flyplasser (METAR- og TAF-rapporter).

Tilgjengelige stasjoner er representert av de røde og gule prikkene på kartet.

Hold musepekeren over prikken for å se navnet på stasjonen.

Klikk så for å se værobservasjoner og -varsler.

For å forandre kartet kan du klikke på den grønne knappen med svart kryss for å zoome inn, på den grønne knappen med strek for å zoome ut, eller på de grønne pilene for å se tilstøtende kart.


METAR-TAF: